createdAt,value
2022-10-07T00:01:00.527Z,57.47
2022-10-07T00:03:28.918Z,57.45
2022-10-07T00:06:00.937Z,57.73
2022-10-07T00:08:28.961Z,57.64
2022-10-07T00:10:56.785Z,57.52
2022-10-07T00:13:24.303Z,57.11
2022-10-07T00:15:52.037Z,57.34
2022-10-07T00:18:19.473Z,57.52
2022-10-07T00:20:46.988Z,57.65
2022-10-07T00:23:14.781Z,57.79
2022-10-07T00:25:42.498Z,57.76
2022-10-07T00:28:10.075Z,57.85
2022-10-07T00:30:37.931Z,58.17
2022-10-07T00:33:05.395Z,58.40
2022-10-07T00:35:35.516Z,58.36
2022-10-07T00:38:03.346Z,58.37
2022-10-07T00:40:30.800Z,59.06
2022-10-07T00:42:59.184Z,59.11
2022-10-07T00:45:27.635Z,59.27
2022-10-07T00:47:55.076Z,58.93
2022-10-07T00:50:25.618Z,58.35
2022-10-07T00:53:01.575Z,58.32
2022-10-07T00:55:30.188Z,58.72
2022-10-07T00:58:00.510Z,59.52
2022-10-07T01:00:27.951Z,58.77
2022-10-07T01:02:55.459Z,58.58
2022-10-07T01:05:23.274Z,58.45
2022-10-07T01:07:51.106Z,58.46
2022-10-07T01:10:20.237Z,58.18
2022-10-07T01:13:14.595Z,58.37
2022-10-07T01:15:54.844Z,58.30
2022-10-07T01:18:32.314Z,58.22
2022-10-07T01:21:37.067Z,58.46
2022-10-07T01:24:33.342Z,58.16
2022-10-07T01:27:01.974Z,58.45
2022-10-07T01:29:40.664Z,58.55
2022-10-07T01:32:24.301Z,58.43
2022-10-07T01:34:54.192Z,58.22
2022-10-07T01:37:22.873Z,58.00
2022-10-07T01:39:53.832Z,57.63
2022-10-07T01:42:21.805Z,57.68
2022-10-07T01:44:53.195Z,57.57
2022-10-07T01:47:21.078Z,57.63
2022-10-07T01:49:48.691Z,57.49
2022-10-07T01:52:31.734Z,57.34
2022-10-07T01:55:28.111Z,57.20
2022-10-07T01:58:11.946Z,57.43
2022-10-07T02:00:47.020Z,57.31
2022-10-07T02:03:15.273Z,57.86
2022-10-07T02:05:53.957Z,57.21
2022-10-07T02:08:37.578Z,57.56
2022-10-07T02:11:23.541Z,58.10
2022-10-07T02:14:14.984Z,58.08
2022-10-07T02:16:56.721Z,57.86
2022-10-07T02:19:35.189Z,57.46
2022-10-07T02:22:03.994Z,58.08
2022-10-07T02:24:34.788Z,57.96
2022-10-07T02:27:06.586Z,57.59
2022-10-07T02:29:35.956Z,57.44
2022-10-07T02:32:07.355Z,57.48
2022-10-07T02:34:36.196Z,57.72
2022-10-07T02:37:14.853Z,58.20
2022-10-07T02:39:43.685Z,57.70
2022-10-07T02:42:17.306Z,57.43
2022-10-07T02:45:02.270Z,57.35
2022-10-07T02:47:35.522Z,57.29
2022-10-07T02:50:06.888Z,57.94
2022-10-07T02:52:35.162Z,58.03
2022-10-07T02:55:10.029Z,58.60
2022-10-07T02:57:40.215Z,58.66
2022-10-07T03:00:11.354Z,58.09
2022-10-07T03:02:44.993Z,58.13
2022-10-07T03:05:14.607Z,58.70
2022-10-07T03:07:42.553Z,58.24
2022-10-07T03:10:10.377Z,58.49
2022-10-07T03:12:38.183Z,57.91
2022-10-07T03:15:06.139Z,57.58
2022-10-07T03:17:33.621Z,57.70
2022-10-07T03:20:01.378Z,57.61
2022-10-07T03:22:29.508Z,57.91
2022-10-07T03:24:56.935Z,58.09
2022-10-07T03:27:25.272Z,58.55
2022-10-07T03:29:54.346Z,58.35
2022-10-07T03:32:22.758Z,58.07
2022-10-07T03:34:50.885Z,57.96
2022-10-07T03:37:18.504Z,58.15
2022-10-07T03:39:46.073Z,57.67
2022-10-07T03:42:13.783Z,57.69
2022-10-07T03:44:41.367Z,58.00
2022-10-07T03:47:10.844Z,58.35
2022-10-07T03:49:39.822Z,58.41
2022-10-07T03:52:07.345Z,57.75
2022-10-07T03:54:35.091Z,57.88
2022-10-07T03:57:23.676Z,58.05
2022-10-07T03:59:53.683Z,58.05
2022-10-07T04:02:24.819Z,57.74
2022-10-07T04:04:52.775Z,57.65
2022-10-07T04:07:23.811Z,57.18
2022-10-07T04:09:51.695Z,57.08
2022-10-07T04:12:19.913Z,56.96
2022-10-07T04:14:47.410Z,56.71
2022-10-07T04:17:18.203Z,56.45
2022-10-07T04:19:46.238Z,56.43
2022-10-07T04:22:13.858Z,56.29
2022-10-07T04:24:41.378Z,56.25
2022-10-07T04:27:09.135Z,56.29
2022-10-07T04:29:39.115Z,56.74
2022-10-07T04:32:07.998Z,57.15
2022-10-07T04:34:35.807Z,57.33
2022-10-07T04:37:03.255Z,57.69
2022-10-07T04:39:55.987Z,57.88
2022-10-07T04:42:36.864Z,57.58
2022-10-07T04:45:06.110Z,58.03
2022-10-07T04:47:35.599Z,58.10
2022-10-07T04:50:04.092Z,57.61
2022-10-07T04:52:31.839Z,57.15
2022-10-07T04:54:59.975Z,56.73
2022-10-07T04:57:27.482Z,56.07
2022-10-07T04:59:55.195Z,56.03
2022-10-07T05:02:23.036Z,55.86
2022-10-07T05:04:50.510Z,55.79
2022-10-07T05:07:18.425Z,56.09
2022-10-07T05:09:46.369Z,56.09
2022-10-07T05:12:17.725Z,55.91
2022-10-07T05:14:46.227Z,56.70
2022-10-07T05:17:15.028Z,56.80
2022-10-07T05:19:42.521Z,56.71
2022-10-07T05:22:10.065Z,56.56
2022-10-07T05:24:37.748Z,56.72
2022-10-07T05:27:05.175Z,57.03
2022-10-07T05:29:32.668Z,56.78
2022-10-07T05:32:04.709Z,56.86
2022-10-07T05:34:32.930Z,56.45
2022-10-07T05:37:00.696Z,56.17
2022-10-07T05:39:28.124Z,56.18
2022-10-07T05:41:55.702Z,56.37
2022-10-07T05:44:23.835Z,57.33
2022-10-07T05:46:51.542Z,57.33
2022-10-07T05:49:19.251Z,57.36
2022-10-07T05:51:47.024Z,57.20
2022-10-07T05:54:14.542Z,56.89
2022-10-07T05:56:42.113Z,56.94
2022-10-07T05:59:10.521Z,57.04
2022-10-07T06:01:38.226Z,55.77
2022-10-07T06:04:08.184Z,55.96
2022-10-07T06:06:36.886Z,57.64
2022-10-07T06:09:23.685Z,57.41
2022-10-07T06:12:10.686Z,57.71
2022-10-07T06:14:38.547Z,58.18
2022-10-07T06:17:06.855Z,57.72
2022-10-07T06:19:37.112Z,57.43
2022-10-07T06:22:05.061Z,57.63
2022-10-07T06:24:33.877Z,58.13
2022-10-07T06:27:02.429Z,57.73
2022-10-07T06:29:30.172Z,57.61
2022-10-07T06:31:58.181Z,57.65
2022-10-07T06:34:26.545Z,57.58
2022-10-07T06:36:54.899Z,58.00
2022-10-07T06:39:22.906Z,57.69
2022-10-07T06:41:54.463Z,56.92
2022-10-07T06:44:23.267Z,56.80
2022-10-07T06:46:52.218Z,56.57
2022-10-07T06:49:20.354Z,57.12
2022-10-07T06:51:48.142Z,56.76
2022-10-07T06:54:16.042Z,56.30
2022-10-07T06:56:43.716Z,56.16
2022-10-07T06:59:11.397Z,56.39
2022-10-07T07:01:39.506Z,56.45
2022-10-07T07:04:07.122Z,56.43
2022-10-07T07:06:38.952Z,56.36
2022-10-07T07:09:07.183Z,56.02
2022-10-07T07:11:36.965Z,56.71
2022-10-07T07:14:05.265Z,56.66
2022-10-07T07:16:33.599Z,56.76
2022-10-07T07:19:03.479Z,56.98
2022-10-07T07:21:31.728Z,56.92
2022-10-07T07:24:01.349Z,56.39
2022-10-07T07:26:30.182Z,56.48
2022-10-07T07:29:03.407Z,56.20
2022-10-07T07:31:33.846Z,54.67
2022-10-07T07:34:03.558Z,55.95
2022-10-07T07:36:33.233Z,56.35
2022-10-07T07:39:06.655Z,56.41
2022-10-07T07:41:37.174Z,56.34
2022-10-07T07:44:06.128Z,57.24
2022-10-07T07:46:43.266Z,56.89
2022-10-07T07:49:12.919Z,56.86
2022-10-07T07:51:44.229Z,56.41
2022-10-07T07:54:13.326Z,56.22
2022-10-07T07:56:41.993Z,55.70
2022-10-07T07:59:10.974Z,55.56
2022-10-07T08:01:39.136Z,55.14
2022-10-07T08:04:07.398Z,54.53
2022-10-07T08:06:35.242Z,55.48
2022-10-07T08:09:03.823Z,54.84
2022-10-07T08:11:33.090Z,54.85
2022-10-07T08:14:00.918Z,54.29
2022-10-07T08:16:29.424Z,54.00
2022-10-07T08:18:58.274Z,53.62
2022-10-07T08:21:27.816Z,53.49
2022-10-07T08:23:58.478Z,53.43
2022-10-07T08:26:28.798Z,53.42
2022-10-07T08:28:57.896Z,53.75
2022-10-07T08:31:27.609Z,53.86
2022-10-07T08:33:58.476Z,54.29
2022-10-07T08:36:27.824Z,52.69
2022-10-07T08:38:55.389Z,53.05
2022-10-07T08:41:42.591Z,53.81
2022-10-07T08:44:16.543Z,53.55
2022-10-07T08:47:06.593Z,53.11
2022-10-07T08:50:04.313Z,54.04
2022-10-07T08:52:37.690Z,53.67
2022-10-07T08:55:26.376Z,53.13
2022-10-07T08:58:14.109Z,53.09
2022-10-07T09:00:50.483Z,53.11
2022-10-07T09:03:37.242Z,52.64
2022-10-07T09:06:10.021Z,55.14
2022-10-07T09:08:41.521Z,53.97
2022-10-07T09:11:16.159Z,53.16
2022-10-07T09:13:50.852Z,53.91
2022-10-07T09:16:29.105Z,54.32
2022-10-07T09:19:00.994Z,53.78
2022-10-07T09:21:50.581Z,54.77
2022-10-07T09:24:24.530Z,53.40
2022-10-07T09:26:55.306Z,53.81
2022-10-07T09:29:26.541Z,53.05
2022-10-07T09:31:54.573Z,54.07
2022-10-07T09:34:27.950Z,52.28
2022-10-07T09:37:14.674Z,54.44
2022-10-07T09:39:43.438Z,54.08
2022-10-07T09:42:29.636Z,53.14
2022-10-07T09:45:00.815Z,52.76
2022-10-07T09:47:40.461Z,52.64
2022-10-07T09:50:29.997Z,53.03
2022-10-07T09:52:57.818Z,52.14
2022-10-07T09:55:39.682Z,52.13
2022-10-07T09:58:27.066Z,51.33
2022-10-07T10:00:56.214Z,51.05
2022-10-07T10:03:32.314Z,50.82
2022-10-07T10:06:02.251Z,50.60
2022-10-07T10:08:34.056Z,50.79
2022-10-07T10:11:02.780Z,51.21
2022-10-07T10:13:38.729Z,51.10
2022-10-07T10:16:28.697Z,52.55
2022-10-07T10:19:04.892Z,50.58
2022-10-07T10:21:36.818Z,50.06
2022-10-07T10:24:12.655Z,49.04
2022-10-07T10:27:16.069Z,50.03
2022-10-07T10:29:55.726Z,50.17
2022-10-07T10:32:34.871Z,49.66
2022-10-07T10:35:23.398Z,50.29
2022-10-07T10:37:58.240Z,49.60
2022-10-07T10:40:36.178Z,49.33
2022-10-07T10:43:25.394Z,49.30
2022-10-07T10:45:55.772Z,48.93
2022-10-07T10:48:38.546Z,48.33
2022-10-07T10:51:13.389Z,49.11
2022-10-07T10:54:38.749Z,48.33
2022-10-07T10:57:12.075Z,48.98
2022-10-07T11:00:01.345Z,48.36
2022-10-07T11:02:38.353Z,47.04
2022-10-07T11:05:06.422Z,47.10
2022-10-07T11:07:43.639Z,48.59
2022-10-07T11:10:35.220Z,46.23
2022-10-07T11:13:30.620Z,48.66
2022-10-07T11:16:08.868Z,47.75
2022-10-07T11:18:49.986Z,48.42
2022-10-07T11:21:23.357Z,47.38
2022-10-07T11:24:02.206Z,47.49
2022-10-07T11:26:44.644Z,46.70
2022-10-07T11:29:39.481Z,47.57
2022-10-07T11:32:13.864Z,47.86
2022-10-07T11:34:54.433Z,45.51
2022-10-07T11:37:22.084Z,46.88
2022-10-07T11:39:50.756Z,47.24
2022-10-07T11:42:29.153Z,46.29
2022-10-07T11:45:07.153Z,46.83
2022-10-07T11:47:40.270Z,47.33
2022-10-07T11:50:17.289Z,46.47
2022-10-07T11:52:47.899Z,46.64
2022-10-07T11:55:43.532Z,46.68
2022-10-07T11:58:24.261Z,46.32
2022-10-07T12:01:29.085Z,44.96
2022-10-07T12:04:24.996Z,44.66
2022-10-07T12:07:30.506Z,44.27
2022-10-07T12:10:04.020Z,44.36
2022-10-07T12:12:42.552Z,44.18
2022-10-07T12:15:29.329Z,45.05
2022-10-07T12:18:19.971Z,43.51
2022-10-07T12:20:51.174Z,44.16
2022-10-07T12:23:28.283Z,44.99
2022-10-07T12:26:01.233Z,45.61
2022-10-07T12:28:41.875Z,45.66
2022-10-07T12:31:32.278Z,45.59
2022-10-07T12:34:10.999Z,44.88
2022-10-07T12:36:41.035Z,43.39
2022-10-07T12:39:09.716Z,42.88
2022-10-07T12:41:40.468Z,43.58
2022-10-07T12:44:32.488Z,43.91
2022-10-07T12:47:20.693Z,43.57
2022-10-07T12:50:10.479Z,44.15
2022-10-07T12:52:54.720Z,43.63
2022-10-07T12:55:37.177Z,43.07
2022-10-07T12:58:37.657Z,43.48
2022-10-07T13:01:37.617Z,42.91
2022-10-07T13:04:11.382Z,44.88
2022-10-07T13:07:04.048Z,43.95
2022-10-07T13:09:49.778Z,44.09
2022-10-07T13:12:27.576Z,43.67
2022-10-07T13:15:11.159Z,44.86
2022-10-07T13:17:49.892Z,43.80
2022-10-07T13:20:33.310Z,45.00
2022-10-07T13:23:20.902Z,44.31
2022-10-07T13:25:55.525Z,44.40
2022-10-07T13:28:25.709Z,45.02
2022-10-07T13:30:53.636Z,44.83
2022-10-07T13:33:26.378Z,45.11
2022-10-07T13:36:17.286Z,44.78
2022-10-07T13:38:47.244Z,43.74
2022-10-07T13:41:16.105Z,43.62
2022-10-07T13:43:44.587Z,43.71
2022-10-07T13:46:12.831Z,44.22
2022-10-07T13:48:45.537Z,44.43
2022-10-07T13:51:20.319Z,44.75
2022-10-07T13:53:53.346Z,44.90
2022-10-07T13:56:25.060Z,44.86
2022-10-07T13:58:55.285Z,45.17
2022-10-07T14:01:28.879Z,45.27
2022-10-07T14:04:19.895Z,44.31
2022-10-07T14:06:53.756Z,44.39
2022-10-07T14:09:24.413Z,43.84
2022-10-07T14:12:02.102Z,43.97
2022-10-07T14:14:38.127Z,43.03
2022-10-07T14:17:20.916Z,43.04
2022-10-07T14:19:54.083Z,43.03
2022-10-07T14:22:50.198Z,43.12
2022-10-07T14:25:29.614Z,42.84
2022-10-07T14:27:57.572Z,42.95
2022-10-07T14:30:55.549Z,42.85
2022-10-07T14:33:49.100Z,42.01
2022-10-07T14:36:17.823Z,42.18
2022-10-07T14:38:49.935Z,42.29
2022-10-07T14:41:20.713Z,42.99
2022-10-07T14:43:49.800Z,43.51
2022-10-07T14:46:25.072Z,43.27
2022-10-07T14:48:54.099Z,43.62
2022-10-07T14:51:27.133Z,43.13
2022-10-07T14:53:57.227Z,43.28
2022-10-07T14:56:31.041Z,43.16
2022-10-07T14:58:58.876Z,43.16
2022-10-07T15:01:26.724Z,42.89
2022-10-07T15:03:54.237Z,42.96
2022-10-07T15:06:22.471Z,44.29
2022-10-07T15:08:50.035Z,43.58
2022-10-07T15:11:19.727Z,44.43
2022-10-07T15:13:48.424Z,44.38
2022-10-07T15:16:18.925Z,43.87
2022-10-07T15:18:52.122Z,44.10
2022-10-07T15:21:21.954Z,43.93
2022-10-07T15:23:52.083Z,44.66
2022-10-07T15:26:24.164Z,44.38
2022-10-07T15:28:56.519Z,44.22
2022-10-07T15:31:26.731Z,44.20
2022-10-07T15:33:57.222Z,44.97
2022-10-07T15:36:29.277Z,45.20
2022-10-07T15:38:59.278Z,45.19
2022-10-07T15:41:29.561Z,45.34
2022-10-07T15:43:58.833Z,45.34
2022-10-07T15:46:27.917Z,45.82
2022-10-07T15:48:56.493Z,45.79
2022-10-07T15:51:25.546Z,45.98
2022-10-07T15:53:54.079Z,46.42
2022-10-07T15:56:21.777Z,46.21
2022-10-07T15:58:49.493Z,46.34
2022-10-07T16:01:17.046Z,46.63
2022-10-07T16:03:47.909Z,46.94
2022-10-07T16:06:17.863Z,47.09
2022-10-07T16:08:45.709Z,47.08
2022-10-07T16:11:13.597Z,46.86
2022-10-07T16:13:43.422Z,46.84
2022-10-07T16:16:15.997Z,46.97
2022-10-07T16:18:46.033Z,46.77
2022-10-07T16:21:16.739Z,46.82
2022-10-07T16:23:46.286Z,46.94
2022-10-07T16:26:19.477Z,47.13
2022-10-07T16:29:08.452Z,47.31
2022-10-07T16:31:41.218Z,47.21
2022-10-07T16:34:11.126Z,47.34
2022-10-07T16:36:43.363Z,47.54
2022-10-07T16:39:12.994Z,47.72
2022-10-07T16:41:41.674Z,47.75
2022-10-07T16:44:09.191Z,47.96
2022-10-07T16:46:37.615Z,47.84
2022-10-07T16:49:07.717Z,48.06
2022-10-07T16:51:36.673Z,47.98
2022-10-07T16:54:06.757Z,48.16
2022-10-07T16:56:36.150Z,48.15
2022-10-07T16:59:06.875Z,48.17
2022-10-07T17:01:34.730Z,48.42
2022-10-07T17:04:02.383Z,48.42
2022-10-07T17:06:30.761Z,48.60
2022-10-07T17:09:04.408Z,48.58
2022-10-07T17:11:33.693Z,48.72
2022-10-07T17:14:15.537Z,48.78
2022-10-07T17:16:45.723Z,48.96
2022-10-07T17:19:18.646Z,49.23
2022-10-07T17:21:47.703Z,49.23
2022-10-07T17:24:17.775Z,49.38
2022-10-07T17:26:45.955Z,49.42
2022-10-07T17:29:16.534Z,49.42
2022-10-07T17:31:48.215Z,49.52
2022-10-07T17:34:16.506Z,49.71
2022-10-07T17:36:44.341Z,49.79
2022-10-07T17:39:12.289Z,50.05
2022-10-07T17:41:40.227Z,50.11
2022-10-07T17:44:11.864Z,50.10
2022-10-07T17:46:40.521Z,50.33
2022-10-07T17:49:11.554Z,50.50
2022-10-07T17:51:42.495Z,50.58
2022-10-07T17:54:12.040Z,50.84
2022-10-07T17:56:39.699Z,50.80
2022-10-07T17:59:07.273Z,51.07
2022-10-07T18:01:35.423Z,51.44
2022-10-07T18:04:09.830Z,51.68
2022-10-07T18:06:38.860Z,51.65
2022-10-07T18:09:08.195Z,51.51
2022-10-07T18:11:54.600Z,51.51
2022-10-07T18:14:41.395Z,51.62
2022-10-07T18:17:10.428Z,51.72
2022-10-07T18:19:39.791Z,51.72
2022-10-07T18:22:07.928Z,52.14
2022-10-07T18:24:35.370Z,52.05
2022-10-07T18:27:03.283Z,52.08
2022-10-07T18:29:33.121Z,52.04
2022-10-07T18:32:01.064Z,51.92
2022-10-07T18:34:28.929Z,51.96
2022-10-07T18:36:57.355Z,51.91
2022-10-07T18:39:27.648Z,51.93
2022-10-07T18:41:56.038Z,51.86
2022-10-07T18:44:23.599Z,51.87
2022-10-07T18:46:51.380Z,51.95
2022-10-07T18:49:19.238Z,51.97
2022-10-07T18:51:47.342Z,52.06
2022-10-07T18:54:14.865Z,52.15
2022-10-07T18:56:42.596Z,52.02
2022-10-07T18:59:13.155Z,52.00
2022-10-07T19:01:41.071Z,52.20
2022-10-07T19:04:10.160Z,52.11
2022-10-07T19:06:39.832Z,52.23
2022-10-07T19:09:09.499Z,52.20
2022-10-07T19:11:37.216Z,52.33
2022-10-07T19:14:04.828Z,52.50
2022-10-07T19:16:35.315Z,52.38
2022-10-07T19:19:15.580Z,52.40
2022-10-07T19:21:46.247Z,52.22
2022-10-07T19:24:15.496Z,52.47
2022-10-07T19:26:45.886Z,52.66
2022-10-07T19:29:14.373Z,52.92
2022-10-07T19:31:44.447Z,53.11
2022-10-07T19:34:21.044Z,52.82
2022-10-07T19:36:49.945Z,52.77
2022-10-07T19:39:19.979Z,52.76
2022-10-07T19:41:48.259Z,53.01
2022-10-07T19:44:16.431Z,52.65
2022-10-07T19:46:44.263Z,52.92
2022-10-07T19:49:12.022Z,52.56
2022-10-07T19:51:41.920Z,52.65
2022-10-07T19:54:10.905Z,52.73
2022-10-07T19:56:39.318Z,52.76
2022-10-07T19:59:12.077Z,52.75
2022-10-07T20:01:42.264Z,52.91
2022-10-07T20:04:15.947Z,52.92
2022-10-07T20:06:43.800Z,53.15
2022-10-07T20:09:14.374Z,53.57
2022-10-07T20:11:43.119Z,53.72
2022-10-07T20:14:10.948Z,53.97
2022-10-07T20:16:39.273Z,54.14
2022-10-07T20:19:10.931Z,54.07
2022-10-07T20:21:39.462Z,54.03
2022-10-07T20:24:08.405Z,54.06
2022-10-07T20:26:38.260Z,54.08
2022-10-07T20:29:08.762Z,54.11
2022-10-07T20:31:39.162Z,54.27
2022-10-07T20:34:08.333Z,54.24
2022-10-07T20:36:37.952Z,54.50
2022-10-07T20:39:33.050Z,54.74
2022-10-07T20:42:19.642Z,55.65
2022-10-07T20:44:49.236Z,55.95
2022-10-07T20:47:17.782Z,55.69
2022-10-07T20:49:45.486Z,55.45
2022-10-07T20:52:17.056Z,55.53
2022-10-07T20:54:45.660Z,55.61
2022-10-07T20:57:16.340Z,55.64
2022-10-07T20:59:44.270Z,55.28
2022-10-07T21:02:13.886Z,55.51
2022-10-07T21:04:41.625Z,55.54
2022-10-07T21:07:09.055Z,55.00
2022-10-07T21:09:36.918Z,55.35
2022-10-07T21:12:07.439Z,55.56
2022-10-07T21:14:36.617Z,55.23
2022-10-07T21:17:05.266Z,55.10
2022-10-07T21:19:35.526Z,55.33
2022-10-07T21:22:06.839Z,55.06
2022-10-07T21:24:34.785Z,54.83
2022-10-07T21:27:04.211Z,54.73
2022-10-07T21:29:32.116Z,54.94
2022-10-07T21:32:00.901Z,54.86
2022-10-07T21:34:29.890Z,55.10
2022-10-07T21:36:57.722Z,55.15
2022-10-07T21:39:26.433Z,55.28
2022-10-07T21:41:54.334Z,54.86
2022-10-07T21:44:21.794Z,54.58
2022-10-07T21:46:49.897Z,54.89
2022-10-07T21:49:18.246Z,54.62
2022-10-07T21:51:45.687Z,54.99
2022-10-07T21:54:14.505Z,54.83
2022-10-07T21:56:43.676Z,54.67
2022-10-07T21:59:11.370Z,55.26
2022-10-07T22:01:39.282Z,55.02
2022-10-07T22:04:08.131Z,55.04
2022-10-07T22:06:54.255Z,55.19
2022-10-07T22:09:21.972Z,55.19
2022-10-07T22:11:50.298Z,55.47
2022-10-07T22:14:19.131Z,55.61
2022-10-07T22:16:49.865Z,55.79
2022-10-07T22:19:20.263Z,56.04
2022-10-07T22:21:48.003Z,56.16
2022-10-07T22:24:15.457Z,56.33
2022-10-07T22:26:46.306Z,55.93
2022-10-07T22:29:16.273Z,56.06
2022-10-07T22:31:44.364Z,55.89
2022-10-07T22:34:32.173Z,56.14
2022-10-07T22:37:00.114Z,55.50
2022-10-07T22:39:31.310Z,55.53
2022-10-07T22:41:58.941Z,55.42
2022-10-07T22:44:28.203Z,55.28
2022-10-07T22:46:56.686Z,55.28
2022-10-07T22:49:29.393Z,55.68
2022-10-07T22:51:59.669Z,55.78
2022-10-07T22:54:28.042Z,55.44
2022-10-07T22:56:55.767Z,55.14
2022-10-07T22:59:23.490Z,55.07
2022-10-07T23:01:50.973Z,55.38
2022-10-07T23:04:19.488Z,55.34
2022-10-07T23:06:47.320Z,55.00
2022-10-07T23:09:14.730Z,55.10
2022-10-07T23:11:42.239Z,54.72
2022-10-07T23:14:09.989Z,54.84
2022-10-07T23:16:37.443Z,54.98
2022-10-07T23:19:04.866Z,55.00
2022-10-07T23:21:34.290Z,55.04
2022-10-07T23:24:07.384Z,55.08
2022-10-07T23:26:36.514Z,55.09
2022-10-07T23:29:04.150Z,55.28
2022-10-07T23:31:32.433Z,55.06
2022-10-07T23:34:01.842Z,54.89
2022-10-07T23:36:29.870Z,55.04
2022-10-07T23:38:59.470Z,55.52
2022-10-07T23:41:29.374Z,55.72
2022-10-07T23:43:58.748Z,55.45
2022-10-07T23:46:27.315Z,55.46
2022-10-07T23:48:56.047Z,55.74
2022-10-07T23:51:26.131Z,56.05
2022-10-07T23:53:56.523Z,55.61
2022-10-07T23:56:24.469Z,55.74
2022-10-07T23:58:52.122Z,55.12
